sensor_id;sensor_type;location;lat;lon;timestamp;P1;durP1;ratioP1;P2;durP2;ratioP2
21729;SDS011;11027;51.030;13.812;2024-03-08T00:00:15;38.95;;;21.10;;
21729;SDS011;11027;51.030;13.812;2024-03-08T00:02:43;28.40;;;19.75;;
21729;SDS011;11027;51.030;13.812;2024-03-08T00:05:10;30.15;;;20.48;;
21729;SDS011;11027;51.030;13.812;2024-03-08T00:07:35;28.95;;;19.85;;
21729;SDS011;11027;51.030;13.812;2024-03-08T00:10:02;31.98;;;20.95;;
21729;SDS011;11027;51.030;13.812;2024-03-08T00:12:28;31.85;;;21.95;;
21729;SDS011;11027;51.030;13.812;2024-03-08T00:14:54;35.08;;;21.13;;
21729;SDS011;11027;51.030;13.812;2024-03-08T00:17:19;34.03;;;21.60;;
21729;SDS011;11027;51.030;13.812;2024-03-08T00:19:47;32.55;;;21.42;;
21729;SDS011;11027;51.030;13.812;2024-03-08T00:22:13;32.15;;;21.42;;
21729;SDS011;11027;51.030;13.812;2024-03-08T00:24:38;37.58;;;21.75;;
21729;SDS011;11027;51.030;13.812;2024-03-08T00:27:04;36.58;;;23.35;;
21729;SDS011;11027;51.030;13.812;2024-03-08T00:29:30;36.45;;;22.85;;
21729;SDS011;11027;51.030;13.812;2024-03-08T00:31:56;39.15;;;23.85;;
21729;SDS011;11027;51.030;13.812;2024-03-08T00:34:21;38.15;;;23.73;;
21729;SDS011;11027;51.030;13.812;2024-03-08T00:36:46;39.55;;;24.23;;
21729;SDS011;11027;51.030;13.812;2024-03-08T00:39:12;35.53;;;23.05;;
21729;SDS011;11027;51.030;13.812;2024-03-08T00:41:38;40.70;;;23.20;;
21729;SDS011;11027;51.030;13.812;2024-03-08T00:44:03;38.10;;;23.02;;
21729;SDS011;11027;51.030;13.812;2024-03-08T00:46:29;37.42;;;23.80;;
21729;SDS011;11027;51.030;13.812;2024-03-08T00:48:56;37.85;;;23.08;;
21729;SDS011;11027;51.030;13.812;2024-03-08T00:51:21;36.38;;;23.17;;
21729;SDS011;11027;51.030;13.812;2024-03-08T00:53:47;35.70;;;22.20;;
21729;SDS011;11027;51.030;13.812;2024-03-08T00:56:12;38.00;;;22.60;;
21729;SDS011;11027;51.030;13.812;2024-03-08T00:58:37;36.33;;;21.75;;
21729;SDS011;11027;51.030;13.812;2024-03-08T01:01:03;39.15;;;23.08;;
21729;SDS011;11027;51.030;13.812;2024-03-08T01:03:29;31.73;;;22.05;;
21729;SDS011;11027;51.030;13.812;2024-03-08T01:05:56;38.42;;;23.25;;
21729;SDS011;11027;51.030;13.812;2024-03-08T01:08:22;34.67;;;21.92;;
21729;SDS011;11027;51.030;13.812;2024-03-08T01:10:48;34.47;;;22.42;;
21729;SDS011;11027;51.030;13.812;2024-03-08T01:13:16;36.33;;;23.08;;
21729;SDS011;11027;51.030;13.812;2024-03-08T01:15:41;37.45;;;23.33;;
21729;SDS011;11027;51.030;13.812;2024-03-08T01:18:07;38.75;;;23.10;;
21729;SDS011;11027;51.030;13.812;2024-03-08T01:20:32;35.45;;;22.45;;
21729;SDS011;11027;51.030;13.812;2024-03-08T01:22:58;37.17;;;22.55;;
21729;SDS011;11027;51.030;13.812;2024-03-08T01:25:23;33.85;;;22.20;;
21729;SDS011;11027;51.030;13.812;2024-03-08T01:27:48;39.05;;;23.48;;
21729;SDS011;11027;51.030;13.812;2024-03-08T01:30:13;34.30;;;21.02;;
21729;SDS011;11027;51.030;13.812;2024-03-08T01:32:42;33.67;;;21.55;;
21729;SDS011;11027;51.030;13.812;2024-03-08T01:35:09;34.55;;;22.25;;
21729;SDS011;11027;51.030;13.812;2024-03-08T01:37:35;37.65;;;23.45;;
21729;SDS011;11027;51.030;13.812;2024-03-08T01:40:00;38.70;;;22.33;;
21729;SDS011;11027;51.030;13.812;2024-03-08T01:42:25;37.50;;;22.52;;
21729;SDS011;11027;51.030;13.812;2024-03-08T01:44:51;35.85;;;21.45;;
21729;SDS011;11027;51.030;13.812;2024-03-08T01:47:16;36.13;;;22.67;;
21729;SDS011;11027;51.030;13.812;2024-03-08T01:49:42;37.42;;;22.63;;
21729;SDS011;11027;51.030;13.812;2024-03-08T01:52:08;34.55;;;22.38;;
21729;SDS011;11027;51.030;13.812;2024-03-08T01:54:34;40.42;;;23.00;;
21729;SDS011;11027;51.030;13.812;2024-03-08T01:57:00;35.53;;;21.88;;
21729;SDS011;11027;51.030;13.812;2024-03-08T01:59:26;33.03;;;21.67;;
21729;SDS011;11027;51.030;13.812;2024-03-08T02:01:52;35.38;;;21.88;;
21729;SDS011;11027;51.030;13.812;2024-03-08T02:04:21;34.42;;;21.80;;
21729;SDS011;11027;51.030;13.812;2024-03-08T02:06:46;37.80;;;22.10;;
21729;SDS011;11027;51.030;13.812;2024-03-08T02:09:13;34.63;;;21.83;;
21729;SDS011;11027;51.030;13.812;2024-03-08T02:11:38;36.80;;;22.77;;
21729;SDS011;11027;51.030;13.812;2024-03-08T02:14:06;39.88;;;22.90;;
21729;SDS011;11027;51.030;13.812;2024-03-08T02:16:31;34.78;;;21.90;;
21729;SDS011;11027;51.030;13.812;2024-03-08T02:18:57;39.38;;;22.58;;
21729;SDS011;11027;51.030;13.812;2024-03-08T02:21:22;39.08;;;22.75;;
21729;SDS011;11027;51.030;13.812;2024-03-08T02:23:49;35.38;;;23.00;;
21729;SDS011;11027;51.030;13.812;2024-03-08T02:26:17;34.78;;;23.15;;
21729;SDS011;11027;51.030;13.812;2024-03-08T02:28:42;32.72;;;22.63;;
21729;SDS011;11027;51.030;13.812;2024-03-08T02:31:09;35.05;;;21.77;;
21729;SDS011;11027;51.030;13.812;2024-03-08T02:33:34;35.67;;;22.05;;
21729;SDS011;11027;51.030;13.812;2024-03-08T02:35:59;37.92;;;22.83;;
21729;SDS011;11027;51.030;13.812;2024-03-08T02:38:25;32.65;;;21.40;;
21729;SDS011;11027;51.030;13.812;2024-03-08T02:40:51;38.20;;;23.65;;
21729;SDS011;11027;51.030;13.812;2024-03-08T02:43:18;36.00;;;21.63;;
21729;SDS011;11027;51.030;13.812;2024-03-08T02:45:44;37.50;;;22.35;;
21729;SDS011;11027;51.030;13.812;2024-03-08T02:48:12;39.20;;;23.38;;
21729;SDS011;11027;51.030;13.812;2024-03-08T02:50:39;34.95;;;22.33;;
21729;SDS011;11027;51.030;13.812;2024-03-08T02:53:10;43.63;;;23.23;;
21729;SDS011;11027;51.030;13.812;2024-03-08T02:55:37;39.45;;;23.45;;
21729;SDS011;11027;51.030;13.812;2024-03-08T02:58:04;33.40;;;21.17;;
21729;SDS011;11027;51.030;13.812;2024-03-08T03:00:29;37.13;;;23.05;;
21729;SDS011;11027;51.030;13.812;2024-03-08T03:02:56;35.80;;;22.27;;
21729;SDS011;11027;51.030;13.812;2024-03-08T03:05:22;35.70;;;22.63;;
21729;SDS011;11027;51.030;13.812;2024-03-08T03:07:48;40.33;;;23.67;;
21729;SDS011;11027;51.030;13.812;2024-03-08T03:10:13;36.40;;;22.23;;
21729;SDS011;11027;51.030;13.812;2024-03-08T03:12:42;39.60;;;22.75;;
21729;SDS011;11027;51.030;13.812;2024-03-08T03:15:07;37.13;;;23.20;;
21729;SDS011;11027;51.030;13.812;2024-03-08T03:17:33;38.97;;;22.90;;
21729;SDS011;11027;51.030;13.812;2024-03-08T03:19:58;40.97;;;22.35;;
21729;SDS011;11027;51.030;13.812;2024-03-08T03:22:23;36.03;;;22.42;;
21729;SDS011;11027;51.030;13.812;2024-03-08T03:24:50;35.05;;;23.30;;
21729;SDS011;11027;51.030;13.812;2024-03-08T03:27:16;36.00;;;22.73;;
21729;SDS011;11027;51.030;13.812;2024-03-08T03:29:43;38.85;;;23.23;;
21729;SDS011;11027;51.030;13.812;2024-03-08T03:32:12;39.10;;;22.92;;
21729;SDS011;11027;51.030;13.812;2024-03-08T03:34:38;39.78;;;22.48;;
21729;SDS011;11027;51.030;13.812;2024-03-08T03:37:04;38.17;;;22.63;;
21729;SDS011;11027;51.030;13.812;2024-03-08T03:39:30;37.22;;;22.35;;
21729;SDS011;11027;51.030;13.812;2024-03-08T03:41:59;35.47;;;22.40;;
21729;SDS011;11027;51.030;13.812;2024-03-08T03:44:28;35.95;;;21.30;;
21729;SDS011;11027;51.030;13.812;2024-03-08T03:46:53;35.55;;;21.88;;
21729;SDS011;11027;51.030;13.812;2024-03-08T03:49:19;36.78;;;22.23;;
21729;SDS011;11027;51.030;13.812;2024-03-08T03:51:44;36.85;;;23.02;;
21729;SDS011;11027;51.030;13.812;2024-03-08T03:54:10;42.10;;;23.70;;
21729;SDS011;11027;51.030;13.812;2024-03-08T03:56:35;37.13;;;21.85;;
21729;SDS011;11027;51.030;13.812;2024-03-08T03:59:01;39.65;;;22.80;;
21729;SDS011;11027;51.030;13.812;2024-03-08T04:01:26;36.72;;;23.15;;
21729;SDS011;11027;51.030;13.812;2024-03-08T04:03:51;35.55;;;21.67;;
21729;SDS011;11027;51.030;13.812;2024-03-08T04:06:16;32.85;;;21.88;;
21729;SDS011;11027;51.030;13.812;2024-03-08T04:08:42;41.33;;;21.92;;
21729;SDS011;11027;51.030;13.812;2024-03-08T04:11:07;37.25;;;23.13;;
21729;SDS011;11027;51.030;13.812;2024-03-08T04:13:35;39.95;;;22.88;;
21729;SDS011;11027;51.030;13.812;2024-03-08T04:16:01;38.13;;;22.67;;
21729;SDS011;11027;51.030;13.812;2024-03-08T04:18:27;38.17;;;22.30;;
21729;SDS011;11027;51.030;13.812;2024-03-08T04:20:53;39.42;;;22.05;;
21729;SDS011;11027;51.030;13.812;2024-03-08T04:23:18;34.88;;;21.65;;
21729;SDS011;11027;51.030;13.812;2024-03-08T04:25:44;34.08;;;21.65;;
21729;SDS011;11027;51.030;13.812;2024-03-08T04:28:09;35.67;;;22.90;;
21729;SDS011;11027;51.030;13.812;2024-03-08T04:30:38;39.17;;;22.67;;
21729;SDS011;11027;51.030;13.812;2024-03-08T04:33:04;36.80;;;22.67;;
21729;SDS011;11027;51.030;13.812;2024-03-08T04:35:31;35.47;;;21.77;;
21729;SDS011;11027;51.030;13.812;2024-03-08T04:37:56;39.03;;;23.17;;
21729;SDS011;11027;51.030;13.812;2024-03-08T04:40:22;38.92;;;23.50;;
21729;SDS011;11027;51.030;13.812;2024-03-08T04:46:03;38.85;;;23.08;;
21729;SDS011;11027;51.030;13.812;2024-03-08T04:48:28;37.75;;;23.45;;
21729;SDS011;11027;51.030;13.812;2024-03-08T04:50:54;41.55;;;24.10;;
21729;SDS011;11027;51.030;13.812;2024-03-08T04:53:20;39.05;;;22.80;;
21729;SDS011;11027;51.030;13.812;2024-03-08T04:55:46;38.75;;;23.08;;
21729;SDS011;11027;51.030;13.812;2024-03-08T04:58:11;38.47;;;23.55;;
21729;SDS011;11027;51.030;13.812;2024-03-08T05:00:36;37.83;;;22.83;;
21729;SDS011;11027;51.030;13.812;2024-03-08T05:03:01;41.22;;;23.08;;
21729;SDS011;11027;51.030;13.812;2024-03-08T05:05:27;37.00;;;23.52;;
21729;SDS011;11027;51.030;13.812;2024-03-08T05:07:54;40.80;;;23.90;;
21729;SDS011;11027;51.030;13.812;2024-03-08T05:10:19;40.50;;;23.77;;
21729;SDS011;11027;51.030;13.812;2024-03-08T05:12:44;37.35;;;24.17;;
21729;SDS011;11027;51.030;13.812;2024-03-08T05:15:10;39.92;;;24.15;;
21729;SDS011;11027;51.030;13.812;2024-03-08T05:17:35;42.33;;;23.65;;
21729;SDS011;11027;51.030;13.812;2024-03-08T05:20:00;40.42;;;22.98;;
21729;SDS011;11027;51.030;13.812;2024-03-08T05:22:26;41.13;;;23.38;;
21729;SDS011;11027;51.030;13.812;2024-03-08T05:24:51;43.30;;;24.13;;
21729;SDS011;11027;51.030;13.812;2024-03-08T05:27:16;40.15;;;23.77;;
21729;SDS011;11027;51.030;13.812;2024-03-08T05:29:42;42.20;;;23.98;;
21729;SDS011;11027;51.030;13.812;2024-03-08T05:32:07;44.50;;;24.23;;
21729;SDS011;11027;51.030;13.812;2024-03-08T05:34:32;43.78;;;25.38;;
21729;SDS011;11027;51.030;13.812;2024-03-08T05:36:57;47.58;;;26.30;;
21729;SDS011;11027;51.030;13.812;2024-03-08T05:39:23;43.10;;;25.92;;
21729;SDS011;11027;51.030;13.812;2024-03-08T05:41:49;40.33;;;24.95;;
21729;SDS011;11027;51.030;13.812;2024-03-08T05:44:14;43.35;;;24.10;;
21729;SDS011;11027;51.030;13.812;2024-03-08T05:46:39;40.40;;;24.38;;
21729;SDS011;11027;51.030;13.812;2024-03-08T05:49:08;40.70;;;24.10;;
21729;SDS011;11027;51.030;13.812;2024-03-08T05:51:35;37.40;;;24.17;;
21729;SDS011;11027;51.030;13.812;2024-03-08T05:54:02;41.38;;;23.77;;
21729;SDS011;11027;51.030;13.812;2024-03-08T05:56:29;37.90;;;23.70;;
21729;SDS011;11027;51.030;13.812;2024-03-08T05:58:54;40.25;;;23.90;;
21729;SDS011;11027;51.030;13.812;2024-03-08T06:01:19;36.67;;;23.10;;
21729;SDS011;11027;51.030;13.812;2024-03-08T06:03:44;41.08;;;23.63;;
21729;SDS011;11027;51.030;13.812;2024-03-08T06:06:13;65.18;;;37.95;;
21729;SDS011;11027;51.030;13.812;2024-03-08T06:08:39;60.33;;;37.60;;
21729;SDS011;11027;51.030;13.812;2024-03-08T06:11:05;50.88;;;29.17;;
21729;SDS011;11027;51.030;13.812;2024-03-08T06:13:33;39.00;;;24.02;;
21729;SDS011;11027;51.030;13.812;2024-03-08T06:15:58;42.17;;;25.42;;
21729;SDS011;11027;51.030;13.812;2024-03-08T06:18:24;39.90;;;24.65;;
21729;SDS011;11027;51.030;13.812;2024-03-08T06:20:50;43.22;;;24.70;;
21729;SDS011;11027;51.030;13.812;2024-03-08T06:23:15;42.67;;;25.15;;
21729;SDS011;11027;51.030;13.812;2024-03-08T06:25:43;42.45;;;25.95;;
21729;SDS011;11027;51.030;13.812;2024-03-08T06:28:09;40.72;;;25.30;;
21729;SDS011;11027;51.030;13.812;2024-03-08T06:30:35;42.83;;;25.85;;
21729;SDS011;11027;51.030;13.812;2024-03-08T06:33:00;38.95;;;25.25;;
21729;SDS011;11027;51.030;13.812;2024-03-08T06:35:25;41.35;;;25.52;;
21729;SDS011;11027;51.030;13.812;2024-03-08T06:37:51;41.15;;;25.17;;
21729;SDS011;11027;51.030;13.812;2024-03-08T06:40:16;39.60;;;24.60;;
21729;SDS011;11027;51.030;13.812;2024-03-08T06:42:41;50.17;;;27.40;;
21729;SDS011;11027;51.030;13.812;2024-03-08T06:45:07;53.47;;;31.10;;
21729;SDS011;11027;51.030;13.812;2024-03-08T06:47:35;52.47;;;30.90;;
21729;SDS011;11027;51.030;13.812;2024-03-08T06:50:00;42.33;;;26.40;;
21729;SDS011;11027;51.030;13.812;2024-03-08T06:52:26;40.83;;;25.08;;
21729;SDS011;11027;51.030;13.812;2024-03-08T06:54:51;43.58;;;24.45;;
21729;SDS011;11027;51.030;13.812;2024-03-08T06:57:17;40.13;;;24.90;;
21729;SDS011;11027;51.030;13.812;2024-03-08T06:59:42;42.90;;;26.20;;
21729;SDS011;11027;51.030;13.812;2024-03-08T07:02:08;40.10;;;24.58;;
21729;SDS011;11027;51.030;13.812;2024-03-08T07:04:34;40.75;;;26.10;;
21729;SDS011;11027;51.030;13.812;2024-03-08T07:07:02;46.20;;;26.23;;
21729;SDS011;11027;51.030;13.812;2024-03-08T07:09:28;41.08;;;25.15;;
21729;SDS011;11027;51.030;13.812;2024-03-08T07:11:53;44.35;;;25.67;;
21729;SDS011;11027;51.030;13.812;2024-03-08T07:14:22;43.92;;;27.08;;
21729;SDS011;11027;51.030;13.812;2024-03-08T07:16:48;43.72;;;25.98;;
21729;SDS011;11027;51.030;13.812;2024-03-08T07:19:14;43.83;;;26.10;;
21729;SDS011;11027;51.030;13.812;2024-03-08T07:21:40;42.00;;;25.85;;
21729;SDS011;11027;51.030;13.812;2024-03-08T07:24:06;44.58;;;26.58;;
21729;SDS011;11027;51.030;13.812;2024-03-08T07:29:24;45.65;;;25.08;;
21729;SDS011;11027;51.030;13.812;2024-03-08T07:31:49;47.97;;;29.10;;
21729;SDS011;11027;51.030;13.812;2024-03-08T07:34:26;48.80;;;30.63;;
21729;SDS011;11027;51.030;13.812;2024-03-08T07:36:52;59.72;;;34.45;;
21729;SDS011;11027;51.030;13.812;2024-03-08T07:39:17;49.33;;;27.80;;
21729;SDS011;11027;51.030;13.812;2024-03-08T07:41:42;46.22;;;26.88;;
21729;SDS011;11027;51.030;13.812;2024-03-08T07:44:07;44.30;;;25.35;;
21729;SDS011;11027;51.030;13.812;2024-03-08T07:46:33;46.85;;;26.42;;
21729;SDS011;11027;51.030;13.812;2024-03-08T07:48:59;42.30;;;25.58;;
21729;SDS011;11027;51.030;13.812;2024-03-08T07:51:24;51.63;;;31.58;;
21729;SDS011;11027;51.030;13.812;2024-03-08T07:53:50;61.65;;;35.83;;
21729;SDS011;11027;51.030;13.812;2024-03-08T07:56:15;50.33;;;29.58;;
21729;SDS011;11027;51.030;13.812;2024-03-08T07:58:44;42.92;;;26.55;;
21729;SDS011;11027;51.030;13.812;2024-03-08T08:01:15;40.38;;;27.20;;
21729;SDS011;11027;51.030;13.812;2024-03-08T08:03:44;42.33;;;25.88;;
21729;SDS011;11027;51.030;13.812;2024-03-08T08:06:10;42.03;;;26.70;;
21729;SDS011;11027;51.030;13.812;2024-03-08T08:08:40;42.10;;;25.83;;
21729;SDS011;11027;51.030;13.812;2024-03-08T08:11:06;44.60;;;26.08;;
21729;SDS011;11027;51.030;13.812;2024-03-08T08:13:33;40.75;;;24.73;;
21729;SDS011;11027;51.030;13.812;2024-03-08T08:15:59;38.60;;;24.95;;
21729;SDS011;11027;51.030;13.812;2024-03-08T08:18:24;40.80;;;24.80;;
21729;SDS011;11027;51.030;13.812;2024-03-08T08:20:50;39.35;;;23.88;;
21729;SDS011;11027;51.030;13.812;2024-03-08T08:23:17;38.72;;;22.65;;
21729;SDS011;11027;51.030;13.812;2024-03-08T08:25:44;36.08;;;22.23;;
21729;SDS011;11027;51.030;13.812;2024-03-08T08:28:09;34.50;;;22.20;;
21729;SDS011;11027;51.030;13.812;2024-03-08T08:30:35;34.63;;;22.42;;
21729;SDS011;11027;51.030;13.812;2024-03-08T08:33:00;35.38;;;21.30;;
21729;SDS011;11027;51.030;13.812;2024-03-08T08:35:25;34.30;;;21.55;;
21729;SDS011;11027;51.030;13.812;2024-03-08T08:37:51;36.08;;;21.92;;
21729;SDS011;11027;51.030;13.812;2024-03-08T08:40:16;36.20;;;20.52;;
21729;SDS011;11027;51.030;13.812;2024-03-08T08:42:44;31.08;;;19.83;;
21729;SDS011;11027;51.030;13.812;2024-03-08T08:45:10;31.75;;;20.63;;
21729;SDS011;11027;51.030;13.812;2024-03-08T08:47:35;33.47;;;20.85;;
21729;SDS011;11027;51.030;13.812;2024-03-08T08:50:01;33.28;;;20.90;;
21729;SDS011;11027;51.030;13.812;2024-03-08T08:52:29;29.63;;;19.38;;
21729;SDS011;11027;51.030;13.812;2024-03-08T08:54:54;33.35;;;20.30;;
21729;SDS011;11027;51.030;13.812;2024-03-08T08:57:20;29.60;;;19.23;;
21729;SDS011;11027;51.030;13.812;2024-03-08T08:59:45;30.20;;;19.60;;
21729;SDS011;11027;51.030;13.812;2024-03-08T09:02:10;29.73;;;18.92;;
21729;SDS011;11027;51.030;13.812;2024-03-08T09:04:36;31.00;;;19.73;;
21729;SDS011;11027;51.030;13.812;2024-03-08T09:07:01;32.95;;;19.55;;
21729;SDS011;11027;51.030;13.812;2024-03-08T09:09:26;34.90;;;20.90;;
21729;SDS011;11027;51.030;13.812;2024-03-08T09:11:52;33.22;;;19.65;;
21729;SDS011;11027;51.030;13.812;2024-03-08T09:14:17;31.20;;;20.15;;
21729;SDS011;11027;51.030;13.812;2024-03-08T09:16:43;33.55;;;20.38;;
21729;SDS011;11027;51.030;13.812;2024-03-08T09:19:08;33.97;;;20.85;;
21729;SDS011;11027;51.030;13.812;2024-03-08T09:21:35;34.05;;;20.80;;
21729;SDS011;11027;51.030;13.812;2024-03-08T09:24:01;34.55;;;22.20;;
21729;SDS011;11027;51.030;13.812;2024-03-08T09:26:26;30.88;;;20.13;;
21729;SDS011;11027;51.030;13.812;2024-03-08T09:28:52;31.08;;;20.08;;
21729;SDS011;11027;51.030;13.812;2024-03-08T09:31:19;35.60;;;20.27;;
21729;SDS011;11027;51.030;13.812;2024-03-08T09:33:44;34.03;;;20.20;;
21729;SDS011;11027;51.030;13.812;2024-03-08T09:36:10;32.47;;;19.40;;
21729;SDS011;11027;51.030;13.812;2024-03-08T09:38:35;30.08;;;19.73;;
21729;SDS011;11027;51.030;13.812;2024-03-08T09:41:00;29.67;;;19.33;;
21729;SDS011;11027;51.030;13.812;2024-03-08T09:43:29;33.30;;;20.80;;
21729;SDS011;11027;51.030;13.812;2024-03-08T09:45:55;29.10;;;18.90;;
21729;SDS011;11027;51.030;13.812;2024-03-08T09:48:22;31.08;;;19.90;;
21729;SDS011;11027;51.030;13.812;2024-03-08T09:50:48;28.33;;;19.38;;
21729;SDS011;11027;51.030;13.812;2024-03-08T09:53:14;27.95;;;18.25;;
21729;SDS011;11027;51.030;13.812;2024-03-08T09:55:39;29.35;;;18.48;;
21729;SDS011;11027;51.030;13.812;2024-03-08T09:58:10;28.17;;;18.00;;
21729;SDS011;11027;51.030;13.812;2024-03-08T10:01:07;26.75;;;17.23;;
21729;SDS011;11027;51.030;13.812;2024-03-08T10:03:32;26.23;;;17.35;;
21729;SDS011;11027;51.030;13.812;2024-03-08T10:05:57;30.73;;;16.95;;
21729;SDS011;11027;51.030;13.812;2024-03-08T10:08:26;26.52;;;17.25;;
21729;SDS011;11027;51.030;13.812;2024-03-08T10:10:54;29.45;;;18.77;;
21729;SDS011;11027;51.030;13.812;2024-03-08T10:13:19;29.40;;;17.63;;
21729;SDS011;11027;51.030;13.812;2024-03-08T10:15:45;25.30;;;16.58;;
21729;SDS011;11027;51.030;13.812;2024-03-08T10:18:11;24.92;;;16.85;;
21729;SDS011;11027;51.030;13.812;2024-03-08T10:20:36;26.75;;;17.73;;
21729;SDS011;11027;51.030;13.812;2024-03-08T10:23:02;27.75;;;17.65;;
21729;SDS011;11027;51.030;13.812;2024-03-08T10:25:30;27.70;;;18.00;;
21729;SDS011;11027;51.030;13.812;2024-03-08T10:27:58;28.23;;;18.15;;
21729;SDS011;11027;51.030;13.812;2024-03-08T10:30:24;27.65;;;18.00;;
21729;SDS011;11027;51.030;13.812;2024-03-08T10:32:49;25.40;;;17.30;;
21729;SDS011;11027;51.030;13.812;2024-03-08T10:35:14;28.45;;;17.70;;
21729;SDS011;11027;51.030;13.812;2024-03-08T10:40:12;26.52;;;17.88;;
21729;SDS011;11027;51.030;13.812;2024-03-08T10:42:53;30.48;;;17.30;;
21729;SDS011;11027;51.030;13.812;2024-03-08T10:47:50;27.35;;;17.63;;
21729;SDS011;11027;51.030;13.812;2024-03-08T10:50:26;29.23;;;17.67;;
21729;SDS011;11027;51.030;13.812;2024-03-08T10:52:52;27.65;;;17.17;;
21729;SDS011;11027;51.030;13.812;2024-03-08T10:55:18;24.98;;;17.30;;
21729;SDS011;11027;51.030;13.812;2024-03-08T10:57:45;32.00;;;18.17;;
21729;SDS011;11027;51.030;13.812;2024-03-08T11:00:11;28.45;;;17.02;;
21729;SDS011;11027;51.030;13.812;2024-03-08T11:02:38;29.17;;;16.80;;
21729;SDS011;11027;51.030;13.812;2024-03-08T11:05:03;24.15;;;16.35;;
21729;SDS011;11027;51.030;13.812;2024-03-08T11:07:34;25.73;;;17.45;;
21729;SDS011;11027;51.030;13.812;2024-03-08T11:10:02;31.20;;;17.60;;
21729;SDS011;11027;51.030;13.812;2024-03-08T11:12:31;24.98;;;16.60;;
21729;SDS011;11027;51.030;13.812;2024-03-08T11:15:02;23.50;;;16.08;;
21729;SDS011;11027;51.030;13.812;2024-03-08T11:20:11;24.13;;;16.33;;
21729;SDS011;11027;51.030;13.812;2024-03-08T11:22:55;28.05;;;16.35;;
21729;SDS011;11027;51.030;13.812;2024-03-08T11:25:32;27.60;;;15.82;;
21729;SDS011;11027;51.030;13.812;2024-03-08T11:28:13;25.42;;;16.10;;
21729;SDS011;11027;51.030;13.812;2024-03-08T11:33:13;28.58;;;16.10;;
21729;SDS011;11027;51.030;13.812;2024-03-08T11:35:39;23.67;;;16.02;;
21729;SDS011;11027;51.030;13.812;2024-03-08T11:38:07;25.15;;;15.90;;
21729;SDS011;11027;51.030;13.812;2024-03-08T11:40:34;20.98;;;14.73;;
21729;SDS011;11027;51.030;13.812;2024-03-08T11:43:00;21.98;;;15.13;;
21729;SDS011;11027;51.030;13.812;2024-03-08T11:45:28;21.92;;;15.10;;
21729;SDS011;11027;51.030;13.812;2024-03-08T11:47:54;22.27;;;13.80;;
21729;SDS011;11027;51.030;13.812;2024-03-08T11:50:20;21.08;;;14.15;;
21729;SDS011;11027;51.030;13.812;2024-03-08T11:52:46;20.55;;;14.30;;
21729;SDS011;11027;51.030;13.812;2024-03-08T11:55:11;21.33;;;13.85;;
21729;SDS011;11027;51.030;13.812;2024-03-08T11:57:37;18.48;;;13.07;;
21729;SDS011;11027;51.030;13.812;2024-03-08T12:00:03;19.90;;;13.07;;
21729;SDS011;11027;51.030;13.812;2024-03-08T12:02:32;19.33;;;12.45;;
21729;SDS011;11027;51.030;13.812;2024-03-08T12:05:00;19.75;;;11.55;;
21729;SDS011;11027;51.030;13.812;2024-03-08T12:07:28;20.88;;;13.57;;
21729;SDS011;11027;51.030;13.812;2024-03-08T12:12:42;19.48;;;13.80;;
21729;SDS011;11027;51.030;13.812;2024-03-08T12:15:12;17.10;;;12.00;;
21729;SDS011;11027;51.030;13.812;2024-03-08T12:17:38;17.40;;;11.65;;
21729;SDS011;11027;51.030;13.812;2024-03-08T12:20:11;15.50;;;10.85;;
21729;SDS011;11027;51.030;13.812;2024-03-08T12:22:40;16.98;;;11.30;;
21729;SDS011;11027;51.030;13.812;2024-03-08T12:25:07;17.02;;;11.05;;
21729;SDS011;11027;51.030;13.812;2024-03-08T12:27:36;16.58;;;11.55;;
21729;SDS011;11027;51.030;13.812;2024-03-08T12:30:19;16.05;;;11.43;;
21729;SDS011;11027;51.030;13.812;2024-03-08T12:32:50;17.08;;;11.23;;
21729;SDS011;11027;51.030;13.812;2024-03-08T12:35:21;16.80;;;10.55;;
21729;SDS011;11027;51.030;13.812;2024-03-08T12:37:52;15.48;;;11.00;;
21729;SDS011;11027;51.030;13.812;2024-03-08T12:40:19;16.33;;;11.05;;
21729;SDS011;11027;51.030;13.812;2024-03-08T12:42:50;16.33;;;10.88;;
21729;SDS011;11027;51.030;13.812;2024-03-08T12:45:15;18.88;;;11.50;;
21729;SDS011;11027;51.030;13.812;2024-03-08T12:47:40;16.35;;;10.90;;
21729;SDS011;11027;51.030;13.812;2024-03-08T12:50:07;16.08;;;11.23;;
21729;SDS011;11027;51.030;13.812;2024-03-08T12:52:33;15.52;;;11.10;;
21729;SDS011;11027;51.030;13.812;2024-03-08T12:54:59;16.42;;;11.20;;
21729;SDS011;11027;51.030;13.812;2024-03-08T12:57:28;18.30;;;12.68;;
21729;SDS011;11027;51.030;13.812;2024-03-08T12:59:54;18.05;;;11.48;;
21729;SDS011;11027;51.030;13.812;2024-03-08T13:02:19;16.15;;;11.48;;
21729;SDS011;11027;51.030;13.812;2024-03-08T13:04:45;15.80;;;11.10;;
21729;SDS011;11027;51.030;13.812;2024-03-08T13:07:12;21.90;;;11.45;;
21729;SDS011;11027;51.030;13.812;2024-03-08T13:09:41;15.23;;;11.20;;
21729;SDS011;11027;51.030;13.812;2024-03-08T13:12:07;13.90;;;10.73;;
21729;SDS011;11027;51.030;13.812;2024-03-08T13:14:33;14.45;;;10.70;;
21729;SDS011;11027;51.030;13.812;2024-03-08T13:17:00;19.52;;;11.75;;
21729;SDS011;11027;51.030;13.812;2024-03-08T13:19:25;16.98;;;10.82;;
21729;SDS011;11027;51.030;13.812;2024-03-08T13:21:53;15.70;;;11.15;;
21729;SDS011;11027;51.030;13.812;2024-03-08T13:24:18;15.23;;;10.95;;
21729;SDS011;11027;51.030;13.812;2024-03-08T13:26:43;17.50;;;10.48;;
21729;SDS011;11027;51.030;13.812;2024-03-08T13:29:10;14.85;;;9.93;;
21729;SDS011;11027;51.030;13.812;2024-03-08T13:31:35;15.90;;;10.27;;
21729;SDS011;11027;51.030;13.812;2024-03-08T13:34:01;12.77;;;9.35;;
21729;SDS011;11027;51.030;13.812;2024-03-08T13:36:26;12.88;;;10.05;;
21729;SDS011;11027;51.030;13.812;2024-03-08T13:39:00;11.90;;;9.80;;
21729;SDS011;11027;51.030;13.812;2024-03-08T13:41:25;12.32;;;9.15;;
21729;SDS011;11027;51.030;13.812;2024-03-08T13:43:50;12.45;;;8.95;;
21729;SDS011;11027;51.030;13.812;2024-03-08T13:46:16;12.02;;;8.73;;
21729;SDS011;11027;51.030;13.812;2024-03-08T13:48:42;9.68;;;8.68;;
21729;SDS011;11027;51.030;13.812;2024-03-08T13:51:08;11.23;;;9.27;;
21729;SDS011;11027;51.030;13.812;2024-03-08T13:53:37;11.68;;;9.80;;
21729;SDS011;11027;51.030;13.812;2024-03-08T13:56:02;11.00;;;8.98;;
21729;SDS011;11027;51.030;13.812;2024-03-08T13:58:28;10.35;;;8.75;;
21729;SDS011;11027;51.030;13.812;2024-03-08T14:00:53;10.70;;;8.85;;
21729;SDS011;11027;51.030;13.812;2024-03-08T14:03:20;11.90;;;10.55;;
21729;SDS011;11027;51.030;13.812;2024-03-08T14:05:45;10.45;;;9.20;;
21729;SDS011;11027;51.030;13.812;2024-03-08T14:08:11;10.68;;;9.35;;
21729;SDS011;11027;51.030;13.812;2024-03-08T14:10:37;13.27;;;9.40;;
21729;SDS011;11027;51.030;13.812;2024-03-08T14:13:03;9.63;;;8.57;;
21729;SDS011;11027;51.030;13.812;2024-03-08T14:15:30;11.05;;;9.90;;
21729;SDS011;11027;51.030;13.812;2024-03-08T14:17:56;10.15;;;8.65;;
21729;SDS011;11027;51.030;13.812;2024-03-08T14:20:22;10.27;;;8.05;;
21729;SDS011;11027;51.030;13.812;2024-03-08T14:22:50;12.05;;;7.07;;